createdAt,value
2018-06-13T00:00:00.293Z,5.80
2018-06-13T00:02:28.698Z,6.33
2018-06-13T00:04:57.001Z,5.80
2018-06-13T00:07:25.420Z,5.53
2018-06-13T00:09:53.743Z,6.77
2018-06-13T00:12:22.148Z,6.93
2018-06-13T00:14:50.474Z,8.35
2018-06-13T00:17:18.816Z,7.33
2018-06-13T00:19:47.158Z,6.13
2018-06-13T00:22:15.589Z,6.00
2018-06-13T00:24:43.909Z,6.37
2018-06-13T00:27:12.305Z,4.67
2018-06-13T00:29:41.087Z,8.73
2018-06-13T00:32:09.424Z,7.03
2018-06-13T00:34:37.749Z,9.00
2018-06-13T00:37:06.251Z,5.97
2018-06-13T00:39:34.653Z,5.37
2018-06-13T00:42:05.660Z,7.73
2018-06-13T00:44:34.029Z,6.27
2018-06-13T00:47:02.336Z,9.83
2018-06-13T00:49:30.741Z,4.50
2018-06-13T00:51:59.041Z,6.03
2018-06-13T00:54:27.068Z,7.47
2018-06-13T00:56:55.093Z,5.80
2018-06-13T00:59:23.797Z,6.57
2018-06-13T01:01:52.105Z,6.17
2018-06-13T01:04:20.414Z,5.60
2018-06-13T01:06:48.725Z,8.53
2018-06-13T01:09:17.090Z,7.97
2018-06-13T01:11:45.434Z,9.23
2018-06-13T01:14:13.825Z,6.17
2018-06-13T01:16:42.161Z,6.83
2018-06-13T01:19:10.494Z,6.80
2018-06-13T01:21:38.857Z,7.90
2018-06-13T01:24:07.201Z,6.70
2018-06-13T01:26:35.542Z,6.37
2018-06-13T01:29:03.999Z,6.40
2018-06-13T01:31:32.360Z,5.80
2018-06-13T01:34:00.690Z,6.30
2018-06-13T01:36:29.461Z,7.73
2018-06-13T01:38:57.796Z,7.23
2018-06-13T01:41:26.158Z,8.50
2018-06-13T01:43:54.477Z,7.20
2018-06-13T01:46:22.777Z,7.57
2018-06-13T01:48:51.093Z,6.40
2018-06-13T01:51:19.733Z,6.23
2018-06-13T01:53:48.041Z,6.67
2018-06-13T01:56:16.370Z,6.90
2018-06-13T01:58:44.829Z,7.10
2018-06-13T02:01:13.145Z,6.03
2018-06-13T02:03:41.430Z,6.83
2018-06-13T02:06:09.884Z,6.43
2018-06-13T02:08:38.173Z,5.17
2018-06-13T02:11:06.501Z,6.97
2018-06-13T02:13:35.089Z,7.13
2018-06-13T02:16:03.407Z,8.33
2018-06-13T02:18:32.386Z,6.97
2018-06-13T02:21:00.787Z,8.47
2018-06-13T02:23:29.229Z,9.17
2018-06-13T02:25:57.601Z,6.57
2018-06-13T02:28:25.980Z,7.60
2018-06-13T02:30:54.289Z,7.03
2018-06-13T02:33:22.592Z,10.63
2018-06-13T02:35:50.911Z,9.67
2018-06-13T02:38:19.274Z,10.67
2018-06-13T02:40:47.658Z,9.50
2018-06-13T02:43:16.035Z,11.37
2018-06-13T02:45:44.384Z,7.43
2018-06-13T02:48:12.813Z,8.17
2018-06-13T02:50:41.291Z,7.03
2018-06-13T02:53:09.602Z,6.57
2018-06-13T02:55:37.949Z,8.07
2018-06-13T02:58:06.898Z,9.47
2018-06-13T03:00:35.258Z,9.10
2018-06-13T03:03:03.597Z,7.47
2018-06-13T03:05:32.125Z,6.50
2018-06-13T03:08:00.573Z,8.77
2018-06-13T03:10:29.065Z,5.70
2018-06-13T03:12:57.593Z,6.77
2018-06-13T03:15:25.945Z,10.13
2018-06-13T03:17:54.245Z,6.37
2018-06-13T03:20:22.734Z,7.90
2018-06-13T03:22:51.053Z,6.60
2018-06-13T03:25:19.402Z,6.63
2018-06-13T03:27:47.825Z,5.47
2018-06-13T03:30:15.906Z,5.47
2018-06-13T03:32:44.366Z,6.97
2018-06-13T03:35:12.709Z,6.03
2018-06-13T03:37:41.077Z,6.93
2018-06-13T03:40:09.449Z,7.63
2018-06-13T03:42:38.073Z,7.27
2018-06-13T03:45:06.357Z,9.53
2018-06-13T03:47:34.681Z,7.73
2018-06-13T03:50:03.046Z,9.63
2018-06-13T03:52:31.357Z,5.57
2018-06-13T03:54:59.658Z,8.30
2018-06-13T03:57:28.014Z,7.97
2018-06-13T03:59:56.356Z,9.73
2018-06-13T04:02:24.686Z,5.73
2018-06-13T04:04:53.422Z,12.97
2018-06-13T04:07:21.845Z,10.97
2018-06-13T04:09:50.173Z,5.90
2018-06-13T04:12:19.392Z,6.80
2018-06-13T04:14:47.741Z,8.20
2018-06-13T04:17:16.259Z,6.83
2018-06-13T04:19:44.706Z,6.17
2018-06-13T04:22:12.804Z,11.43
2018-06-13T04:24:41.114Z,9.70
2018-06-13T04:27:09.659Z,6.17
2018-06-13T04:29:38.125Z,7.40
2018-06-13T04:32:06.557Z,9.73
2018-06-13T04:34:34.974Z,11.80
2018-06-13T04:37:03.305Z,7.50
2018-06-13T04:39:31.705Z,9.83
2018-06-13T04:42:00.688Z,4.97
2018-06-13T04:44:29.033Z,8.20
2018-06-13T04:46:57.419Z,8.77
2018-06-13T04:49:25.809Z,7.93
2018-06-13T04:51:54.406Z,6.20
2018-06-13T04:54:22.713Z,6.30
2018-06-13T04:56:51.375Z,7.43
2018-06-13T04:59:19.685Z,8.73
2018-06-13T05:01:48.146Z,10.07
2018-06-13T05:04:16.533Z,8.17
2018-06-13T05:06:45.112Z,7.10
2018-06-13T05:09:13.457Z,7.23
2018-06-13T05:11:42.043Z,4.53
2018-06-13T05:14:10.614Z,6.47
2018-06-13T05:16:38.937Z,5.53
2018-06-13T05:19:07.437Z,12.07
2018-06-13T05:21:35.509Z,8.50
2018-06-13T05:24:03.865Z,7.33
2018-06-13T05:26:32.253Z,7.63
2018-06-13T05:29:00.655Z,5.57
2018-06-13T05:31:29.157Z,6.40
2018-06-13T05:33:57.592Z,10.87
2018-06-13T05:36:26.014Z,4.60
2018-06-13T05:38:54.630Z,6.33
2018-06-13T05:41:23.065Z,7.33
2018-06-13T05:43:51.218Z,5.07
2018-06-13T05:46:19.585Z,5.27
2018-06-13T05:48:48.489Z,7.20
2018-06-13T05:51:16.810Z,5.97
2018-06-13T05:53:45.168Z,6.97
2018-06-13T05:56:13.733Z,6.67
2018-06-13T05:58:42.056Z,6.67
2018-06-13T06:01:10.388Z,9.80
2018-06-13T06:03:38.789Z,6.50
2018-06-13T06:06:06.816Z,4.53
2018-06-13T06:08:35.165Z,7.47
2018-06-13T06:11:04.590Z,4.30
2018-06-13T06:13:32.921Z,7.27
2018-06-13T06:16:01.262Z,5.83
2018-06-13T06:18:29.889Z,8.83
2018-06-13T06:20:58.221Z,4.73
2018-06-13T06:23:26.566Z,8.10
2018-06-13T06:25:54.926Z,5.80
2018-06-13T06:28:23.233Z,7.93
2018-06-13T06:30:51.537Z,6.57
2018-06-13T06:33:20.058Z,6.73
2018-06-13T06:35:48.382Z,7.17
2018-06-13T06:38:16.682Z,7.57
2018-06-13T06:40:45.175Z,8.00
2018-06-13T06:43:13.489Z,9.13
2018-06-13T06:45:41.797Z,4.27
2018-06-13T06:48:10.178Z,5.57
2018-06-13T06:50:38.465Z,7.50
2018-06-13T06:53:07.153Z,9.20
2018-06-13T06:55:35.603Z,3.37
2018-06-13T06:58:03.969Z,4.13
2018-06-13T07:00:32.578Z,4.30
2018-06-13T07:03:00.903Z,8.80
2018-06-13T07:05:29.171Z,6.07
2018-06-13T07:07:57.446Z,5.17
2018-06-13T07:10:25.829Z,7.03
2018-06-13T07:12:54.105Z,3.80
2018-06-13T07:15:22.385Z,4.77
2018-06-13T07:17:50.828Z,6.30
2018-06-13T07:20:19.107Z,2.20
2018-06-13T07:22:47.417Z,3.80
2018-06-13T07:25:15.753Z,4.07
2018-06-13T07:27:44.028Z,4.70
2018-06-13T07:30:12.345Z,5.80
2018-06-13T07:32:40.981Z,8.50
2018-06-13T07:35:10.005Z,5.27
2018-06-13T07:37:38.335Z,5.83
2018-06-13T07:40:06.701Z,3.83
2018-06-13T07:42:34.970Z,8.97
2018-06-13T07:45:03.308Z,5.33
2018-06-13T07:47:31.617Z,5.03
2018-06-13T07:49:59.881Z,6.13
2018-06-13T07:52:28.165Z,5.67
2018-06-13T07:54:56.477Z,4.20
2018-06-13T07:57:24.794Z,6.70
2018-06-13T07:59:53.057Z,4.23
2018-06-13T08:02:21.405Z,7.00
2018-06-13T08:04:49.689Z,8.63
2018-06-13T08:07:17.965Z,4.57
2018-06-13T08:09:46.671Z,9.23
2018-06-13T08:12:15.081Z,5.43
2018-06-13T08:14:43.336Z,5.30
2018-06-13T08:17:12.978Z,6.33
2018-06-13T08:19:50.330Z,4.17
2018-06-13T08:22:25.080Z,6.97
2018-06-13T08:25:00.790Z,5.30
2018-06-13T08:33:17.059Z,6.10
2018-06-13T08:35:53.954Z,5.57
2018-06-13T08:38:34.863Z,5.60
2018-06-13T08:41:23.233Z,3.67
2018-06-13T08:44:04.696Z,6.40
2018-06-13T08:46:33.058Z,5.27
2018-06-13T08:49:01.525Z,3.27
2018-06-13T08:51:30.217Z,4.73
2018-06-13T08:53:59.273Z,3.57
2018-06-13T08:56:27.602Z,3.43
2018-06-13T08:58:56.953Z,4.60
2018-06-13T09:01:33.488Z,3.13
2018-06-13T09:04:14.050Z,5.03
2018-06-13T09:06:50.653Z,2.17
2018-06-13T09:09:20.867Z,3.50
2018-06-13T09:12:02.899Z,3.87
2018-06-13T09:14:36.352Z,4.13
2018-06-13T09:17:20.879Z,4.87
2018-06-13T09:22:49.391Z,4.63
2018-06-13T09:25:28.430Z,5.33
2018-06-13T09:28:08.108Z,5.53
2018-06-13T09:30:43.504Z,3.27
2018-06-13T09:33:16.252Z,4.07
2018-06-13T09:35:59.730Z,2.50
2018-06-13T09:38:36.982Z,3.70
2018-06-13T09:41:09.027Z,4.23
2018-06-13T09:43:51.052Z,7.07
2018-06-13T09:46:19.449Z,4.90
2018-06-13T09:48:47.752Z,3.70
2018-06-13T09:51:16.109Z,3.77
2018-06-13T09:53:44.721Z,3.80
2018-06-13T09:56:13.026Z,4.17
2018-06-13T09:58:46.995Z,4.63
2018-06-13T10:01:20.808Z,3.00
2018-06-13T10:03:49.157Z,4.43
2018-06-13T10:06:17.496Z,3.77
2018-06-13T10:08:45.858Z,4.37
2018-06-13T10:11:13.998Z,5.80
2018-06-13T10:13:42.289Z,6.27
2018-06-13T10:16:11.117Z,8.07
2018-06-13T10:18:39.527Z,3.23
2018-06-13T10:21:07.825Z,4.90
2018-06-13T10:23:36.138Z,5.20
2018-06-13T10:26:05.049Z,4.27
2018-06-13T10:28:33.391Z,6.20
2018-06-13T10:31:01.805Z,2.73
2018-06-13T10:33:30.148Z,5.43
2018-06-13T10:35:59.094Z,5.67
2018-06-13T10:38:27.413Z,6.33
2018-06-13T10:40:55.500Z,2.57
2018-06-13T10:43:23.532Z,4.83
2018-06-13T10:45:52.182Z,4.00
2018-06-13T10:48:20.638Z,6.30
2018-06-13T10:50:48.978Z,5.77
2018-06-13T10:53:17.265Z,4.53
2018-06-13T10:55:46.098Z,3.87
2018-06-13T10:58:14.365Z,2.37
2018-06-13T11:00:42.701Z,4.40
2018-06-13T11:03:11.170Z,4.10
2018-06-13T11:05:39.463Z,4.53
2018-06-13T11:08:07.794Z,3.23
2018-06-13T11:10:36.129Z,5.63
2018-06-13T11:13:04.465Z,4.43
2018-06-13T11:15:32.754Z,5.47
2018-06-13T11:18:01.158Z,3.97
2018-06-13T11:20:29.543Z,5.00
2018-06-13T11:22:57.895Z,4.70
2018-06-13T11:25:26.452Z,4.97
2018-06-13T11:27:54.786Z,3.07
2018-06-13T11:30:23.106Z,6.27
2018-06-13T11:32:51.429Z,3.33
2018-06-13T11:35:19.735Z,2.43
2018-06-13T11:37:47.803Z,2.53
2018-06-13T11:40:16.682Z,2.73
2018-06-13T11:42:45.058Z,3.47
2018-06-13T11:45:13.380Z,4.30
2018-06-13T11:47:41.745Z,2.43
2018-06-13T11:50:10.077Z,7.17
2018-06-13T11:52:38.369Z,4.00
2018-06-13T11:55:06.816Z,2.53
2018-06-13T11:57:35.202Z,4.83
2018-06-13T12:00:03.866Z,3.27
2018-06-13T12:02:32.232Z,8.00
2018-06-13T12:05:00.496Z,5.17
2018-06-13T12:07:28.890Z,7.70
2018-06-13T12:09:57.326Z,5.40
2018-06-13T12:12:25.783Z,7.47
2018-06-13T12:14:54.216Z,5.53
2018-06-13T12:17:23.061Z,5.63
2018-06-13T12:19:51.411Z,6.60
2018-06-13T12:22:19.697Z,5.63
2018-06-13T12:24:48.137Z,5.43
2018-06-13T12:27:16.518Z,2.97
2018-06-13T12:29:44.831Z,2.57
2018-06-13T12:32:14.113Z,4.57
2018-06-13T12:34:44.082Z,4.73
2018-06-13T12:37:12.434Z,4.13
2018-06-13T12:39:40.837Z,4.63
2018-06-13T12:42:09.553Z,4.43
2018-06-13T12:44:37.950Z,6.17
2018-06-13T12:47:06.367Z,5.37
2018-06-13T12:49:34.724Z,3.90
2018-06-13T12:52:03.446Z,9.70
2018-06-13T12:54:31.808Z,4.73
2018-06-13T12:57:00.134Z,4.90
2018-06-13T12:59:28.917Z,5.47
2018-06-13T13:01:57.366Z,5.93
2018-06-13T13:04:25.673Z,2.97
2018-06-13T13:06:54.929Z,6.97
2018-06-13T13:09:23.217Z,3.90
2018-06-13T13:11:52.110Z,3.67
2018-06-13T13:14:20.642Z,2.40
2018-06-13T13:16:49.020Z,4.17
2018-06-13T13:19:17.355Z,4.53
2018-06-13T13:21:45.681Z,5.97
2018-06-13T13:24:14.102Z,9.13
2018-06-13T13:26:42.426Z,4.60
2018-06-13T13:29:10.780Z,6.33
2018-06-13T13:31:39.105Z,8.10
2018-06-13T13:34:07.477Z,7.47
2018-06-13T13:36:35.557Z,5.40
2018-06-13T13:39:05.874Z,4.67
2018-06-13T13:41:34.654Z,6.03
2018-06-13T13:44:03.113Z,6.37
2018-06-13T13:46:32.455Z,5.40
2018-06-13T13:49:00.806Z,5.10
2018-06-13T13:51:28.968Z,7.73
2018-06-13T13:53:57.367Z,3.07
2018-06-13T13:56:26.578Z,5.53
2018-06-13T13:58:55.470Z,6.67
2018-06-13T14:01:23.821Z,6.27
2018-06-13T14:03:53.097Z,7.10
2018-06-13T14:06:22.022Z,6.53
2018-06-13T14:08:50.430Z,5.10
2018-06-13T14:11:18.742Z,4.03
2018-06-13T14:13:47.695Z,5.27
2018-06-13T14:16:15.787Z,5.93
2018-06-13T14:18:44.289Z,4.33
2018-06-13T14:21:13.009Z,3.57
2018-06-13T14:23:41.349Z,3.80
2018-06-13T14:26:09.876Z,6.37
2018-06-13T14:28:38.221Z,3.60
2018-06-13T14:31:06.550Z,8.30
2018-06-13T14:33:34.913Z,5.53
2018-06-13T14:36:03.411Z,4.97
2018-06-13T14:38:31.701Z,4.10
2018-06-13T14:41:00.048Z,5.80
2018-06-13T14:43:28.474Z,5.40
2018-06-13T14:45:56.823Z,4.87
2018-06-13T14:48:25.217Z,7.53
2018-06-13T14:50:53.574Z,2.90
2018-06-13T14:53:21.981Z,6.60
2018-06-13T14:55:57.740Z,5.30
2018-06-13T14:58:26.354Z,4.87
2018-06-13T15:00:54.863Z,9.73
2018-06-13T15:03:23.378Z,5.57
2018-06-13T15:05:51.712Z,5.70
2018-06-13T15:08:20.186Z,4.37
2018-06-13T15:10:48.753Z,6.13
2018-06-13T15:13:17.195Z,5.13
2018-06-13T15:15:45.714Z,5.83
2018-06-13T15:18:14.167Z,8.07
2018-06-13T15:20:42.243Z,6.57
2018-06-13T15:23:10.646Z,4.40
2018-06-13T15:25:39.001Z,9.80
2018-06-13T15:28:07.359Z,5.20
2018-06-13T15:30:35.868Z,4.60
2018-06-13T15:33:05.003Z,5.53
2018-06-13T15:35:33.314Z,3.73
2018-06-13T15:38:02.409Z,5.60
2018-06-13T15:40:30.585Z,9.37
2018-06-13T15:42:58.905Z,5.13
2018-06-13T15:45:27.734Z,5.97
2018-06-13T15:47:56.284Z,8.67
2018-06-13T15:50:24.761Z,8.77
2018-06-13T15:52:53.086Z,6.40
2018-06-13T15:55:21.447Z,4.27
2018-06-13T15:57:49.806Z,4.73
2018-06-13T16:00:18.133Z,4.30
2018-06-13T16:02:46.326Z,8.43
2018-06-13T16:05:14.630Z,5.97
2018-06-13T16:07:42.999Z,6.27
2018-06-13T16:10:11.337Z,4.60
2018-06-13T16:12:39.401Z,5.87
2018-06-13T16:15:07.782Z,4.17
2018-06-13T16:17:37.033Z,7.60
2018-06-13T16:20:05.602Z,3.73
2018-06-13T16:22:34.088Z,6.53
2018-06-13T16:25:02.422Z,6.00
2018-06-13T16:27:30.753Z,5.87
2018-06-13T16:29:59.211Z,4.10
2018-06-13T16:32:27.830Z,3.63
2018-06-13T16:34:56.158Z,3.57
2018-06-13T16:37:25.129Z,6.37
2018-06-13T16:39:53.489Z,6.57
2018-06-13T16:42:21.896Z,3.77
2018-06-13T16:44:50.249Z,5.77
2018-06-13T16:47:18.734Z,4.37
2018-06-13T16:49:47.071Z,5.07
2018-06-13T16:52:27.570Z,4.07
2018-06-13T16:55:19.948Z,4.27
2018-06-13T16:57:48.801Z,3.33
2018-06-13T17:00:17.550Z,5.33
2018-06-13T17:02:45.985Z,5.27
2018-06-13T17:05:14.817Z,5.17
2018-06-13T17:07:43.450Z,6.23
2018-06-13T17:10:11.749Z,5.60
2018-06-13T17:12:40.361Z,4.13
2018-06-13T17:15:08.704Z,3.97
2018-06-13T17:17:37.894Z,3.77
2018-06-13T17:20:11.307Z,3.73
2018-06-13T17:22:39.703Z,4.30
2018-06-13T17:25:08.013Z,3.20
2018-06-13T17:27:36.599Z,4.90
2018-06-13T17:30:05.521Z,4.03
2018-06-13T17:32:33.866Z,3.20
2018-06-13T17:35:10.875Z,5.43
2018-06-13T17:37:39.882Z,4.57
2018-06-13T17:40:08.214Z,3.50
2018-06-13T17:42:36.695Z,5.30
2018-06-13T17:45:06.599Z,5.93
2018-06-13T17:47:34.686Z,4.07
2018-06-13T17:50:03.027Z,4.47
2018-06-13T17:52:31.358Z,5.17
2018-06-13T17:54:59.701Z,4.00
2018-06-13T17:57:28.423Z,5.03
2018-06-13T17:59:56.707Z,4.87
2018-06-13T18:02:25.043Z,5.13
2018-06-13T18:04:53.590Z,4.13
2018-06-13T18:07:21.982Z,6.77
2018-06-13T18:09:50.329Z,6.97
2018-06-13T18:12:19.401Z,5.17
2018-06-13T18:14:48.621Z,6.43
2018-06-13T18:17:17.797Z,7.63
2018-06-13T18:19:46.290Z,5.77
2018-06-13T18:22:14.602Z,4.90
2018-06-13T18:24:43.389Z,6.50
2018-06-13T18:27:11.841Z,6.73
2018-06-13T18:29:40.278Z,4.13
2018-06-13T18:32:08.573Z,7.03
2018-06-13T18:34:37.011Z,6.63
2018-06-13T18:37:05.378Z,4.33
2018-06-13T18:39:33.747Z,7.70
2018-06-13T18:42:05.840Z,6.17
2018-06-13T18:44:34.193Z,4.80
2018-06-13T18:47:02.894Z,3.93
2018-06-13T18:49:32.058Z,4.27
2018-06-13T18:52:00.404Z,4.17
2018-06-13T18:54:28.802Z,4.60
2018-06-13T18:56:57.209Z,4.17
2018-06-13T18:59:26.149Z,3.97
2018-06-13T19:01:55.421Z,7.07
2018-06-13T19:04:23.978Z,6.87
2018-06-13T19:06:52.345Z,7.57
2018-06-13T19:09:20.673Z,4.27
2018-06-13T19:11:49.030Z,5.00
2018-06-13T19:14:17.402Z,4.60
2018-06-13T19:16:45.730Z,5.90
2018-06-13T19:19:14.232Z,3.93
2018-06-13T19:21:42.553Z,3.90
2018-06-13T19:24:10.889Z,6.47
2018-06-13T19:26:39.549Z,5.73
2018-06-13T19:29:07.846Z,4.30
2018-06-13T19:31:36.117Z,6.20
2018-06-13T19:34:04.647Z,5.47
2018-06-13T19:36:33.038Z,8.30
2018-06-13T19:39:03.822Z,7.23
2018-06-13T19:41:32.146Z,7.33
2018-06-13T19:44:00.438Z,7.53
2018-06-13T19:46:28.770Z,6.70
2018-06-13T19:48:58.185Z,10.63
2018-06-13T19:51:26.897Z,6.57
2018-06-13T19:54:00.602Z,7.70
2018-06-13T19:56:30.247Z,6.33
2018-06-13T19:58:58.658Z,6.50
2018-06-13T20:01:27.145Z,6.50
2018-06-13T20:04:02.074Z,7.70
2018-06-13T20:06:30.646Z,5.07
2018-06-13T20:08:59.041Z,7.43
2018-06-13T20:11:27.472Z,8.43
2018-06-13T20:14:02.632Z,6.63
2018-06-13T20:16:47.971Z,5.83
2018-06-13T20:19:21.494Z,7.37
2018-06-13T20:21:49.798Z,7.00
2018-06-13T20:24:17.895Z,8.33
2018-06-13T20:26:52.190Z,8.93
2018-06-13T20:29:25.841Z,8.03
2018-06-13T20:31:54.206Z,8.53
2018-06-13T20:34:22.541Z,10.53
2018-06-13T20:36:50.866Z,7.73
2018-06-13T20:39:19.229Z,7.70
2018-06-13T20:41:47.794Z,8.93
2018-06-13T20:44:16.137Z,6.73
2018-06-13T20:46:44.515Z,7.67
2018-06-13T20:49:13.136Z,9.27
2018-06-13T20:51:41.549Z,9.90
2018-06-13T20:54:12.077Z,9.40
2018-06-13T20:56:41.107Z,10.50
2018-06-13T20:59:09.445Z,7.80
2018-06-13T21:01:38.334Z,7.67
2018-06-13T21:04:07.164Z,8.17
2018-06-13T21:06:35.765Z,8.63
2018-06-13T21:09:05.513Z,7.63
2018-06-13T21:11:34.112Z,8.63
2018-06-13T21:14:02.530Z,7.03
2018-06-13T21:16:30.894Z,7.13
2018-06-13T21:18:59.263Z,7.33
2018-06-13T21:21:27.895Z,8.27
2018-06-13T21:23:56.269Z,7.47
2018-06-13T21:26:25.179Z,8.03
2018-06-13T21:28:53.566Z,8.97
2018-06-13T21:31:22.706Z,8.70
2018-06-13T21:33:51.050Z,8.70
2018-06-13T21:36:19.336Z,7.43
2018-06-13T21:38:48.009Z,10.73
2018-06-13T21:41:16.285Z,8.57
2018-06-13T21:43:44.720Z,8.20
2018-06-13T21:46:13.113Z,9.40
2018-06-13T21:48:41.417Z,9.13
2018-06-13T21:51:09.737Z,9.63
2018-06-13T21:53:38.913Z,11.17
2018-06-13T21:56:07.224Z,9.77
2018-06-13T21:58:35.542Z,9.10
2018-06-13T22:01:03.830Z,9.83
2018-06-13T22:03:32.277Z,11.90
2018-06-13T22:06:00.626Z,9.73
2018-06-13T22:08:29.102Z,12.23
2018-06-13T22:10:57.734Z,9.17
2018-06-13T22:13:26.162Z,10.90
2018-06-13T22:15:56.194Z,9.20
2018-06-13T22:18:24.515Z,9.93
2018-06-13T22:20:52.792Z,10.13
2018-06-13T22:23:22.013Z,10.03
2018-06-13T22:25:50.357Z,10.90
2018-06-13T22:28:18.754Z,10.90
2018-06-13T22:30:47.086Z,12.30
2018-06-13T22:33:15.429Z,10.27
2018-06-13T22:35:43.821Z,12.57
2018-06-13T22:38:12.234Z,9.53
2018-06-13T22:40:40.591Z,10.87
2018-06-13T22:43:11.217Z,11.30
2018-06-13T22:45:40.601Z,11.30
2018-06-13T22:48:09.297Z,11.30
2018-06-13T22:50:37.698Z,12.53
2018-06-13T22:53:06.886Z,10.00
2018-06-13T22:55:35.357Z,11.37
2018-06-13T22:58:03.874Z,12.37
2018-06-13T23:00:39.590Z,14.10
2018-06-13T23:03:07.914Z,13.80
2018-06-13T23:05:36.345Z,15.13
2018-06-13T23:08:04.985Z,13.13
2018-06-13T23:10:33.325Z,12.40
2018-06-13T23:13:01.674Z,13.17
2018-06-13T23:15:30.046Z,12.53
2018-06-13T23:17:58.776Z,13.57
2018-06-13T23:20:27.435Z,13.33
2018-06-13T23:22:56.112Z,12.30
2018-06-13T23:25:24.837Z,13.73
2018-06-13T23:27:53.230Z,15.90
2018-06-13T23:30:21.881Z,13.20
2018-06-13T23:32:50.196Z,13.27
2018-06-13T23:35:18.538Z,13.40
2018-06-13T23:37:46.941Z,15.53
2018-06-13T23:40:15.315Z,16.40
2018-06-13T23:42:43.645Z,11.93
2018-06-13T23:45:12.141Z,16.25
2018-06-13T23:47:40.465Z,16.67
2018-06-13T23:50:08.881Z,16.50
2018-06-13T23:52:37.245Z,15.97
2018-06-13T23:55:05.630Z,16.00
2018-06-13T23:57:34.044Z,12.23
